createdAt,value
2023-11-30T00:04:12.015Z,4.97
2023-11-30T00:09:15.335Z,4.57
2023-11-30T00:14:18.515Z,4.27
2023-11-30T00:19:23.078Z,4.77
2023-11-30T00:24:27.059Z,5.10
2023-11-30T00:29:30.591Z,5.30
2023-11-30T00:34:35.083Z,4.20
2023-11-30T00:39:39.015Z,4.30
2023-11-30T00:44:42.118Z,4.23
2023-11-30T00:49:46.686Z,4.07
2023-11-30T00:54:49.900Z,4.60
2023-11-30T00:59:53.032Z,4.10
2023-11-30T01:04:57.554Z,4.17
2023-11-30T01:10:00.679Z,4.30
2023-11-30T01:15:03.977Z,4.17
2023-11-30T01:20:10.247Z,4.30
2023-11-30T01:25:13.819Z,4.47
2023-11-30T01:30:17.006Z,3.77
2023-11-30T01:35:21.550Z,3.70
2023-11-30T01:40:24.861Z,4.43
2023-11-30T01:45:28.035Z,4.20
2023-11-30T01:50:32.604Z,4.53
2023-11-30T01:55:36.069Z,4.17
2023-11-30T02:00:39.853Z,3.63
2023-11-30T02:05:44.704Z,3.70
2023-11-30T02:10:47.964Z,4.57
2023-11-30T02:15:51.131Z,5.07
2023-11-30T02:20:55.666Z,4.60
2023-11-30T02:26:00.223Z,3.20
2023-11-30T02:31:03.342Z,3.97
2023-11-30T02:36:07.404Z,3.87
2023-11-30T02:41:12.135Z,3.90
2023-11-30T02:46:15.670Z,3.97
2023-11-30T02:51:18.949Z,3.40
2023-11-30T02:56:23.549Z,3.80
2023-11-30T03:01:26.706Z,3.90
2023-11-30T03:06:29.840Z,3.70
2023-11-30T03:11:34.947Z,4.03
2023-11-30T03:16:38.250Z,4.03
2023-11-30T03:21:41.432Z,3.80
2023-11-30T03:26:46.060Z,4.20
2023-11-30T03:31:49.269Z,3.90
2023-11-30T03:36:52.640Z,4.00
2023-11-30T03:41:57.211Z,4.40
2023-11-30T03:47:00.768Z,4.50
2023-11-30T03:52:03.921Z,4.40
2023-11-30T03:57:08.941Z,3.83
2023-11-30T04:02:12.431Z,4.33
2023-11-30T04:07:15.652Z,4.33
2023-11-30T04:12:20.186Z,4.20
2023-11-30T04:17:24.293Z,4.13
2023-11-30T04:22:27.450Z,4.37
2023-11-30T04:27:31.974Z,3.37
2023-11-30T04:32:35.146Z,4.50
2023-11-30T04:37:38.516Z,4.17
2023-11-30T04:42:43.027Z,4.07
2023-11-30T04:47:46.206Z,3.80
2023-11-30T04:52:49.347Z,3.90
2023-11-30T04:57:54.615Z,4.10
2023-11-30T05:02:57.907Z,3.03
2023-11-30T05:08:01.336Z,3.10
2023-11-30T05:13:05.903Z,3.63
2023-11-30T05:18:09.370Z,4.70
2023-11-30T05:23:12.736Z,3.80
2023-11-30T05:28:17.528Z,3.63
2023-11-30T05:33:21.506Z,3.57
2023-11-30T05:38:24.850Z,3.27
2023-11-30T05:43:29.504Z,3.50
2023-11-30T05:48:34.777Z,3.63
2023-11-30T05:53:38.162Z,3.97
2023-11-30T05:58:42.652Z,6.30
2023-11-30T06:03:48.751Z,6.40
2023-11-30T06:08:52.396Z,5.93
2023-11-30T06:13:57.784Z,6.43
2023-11-30T06:19:01.492Z,5.63
2023-11-30T06:24:05.005Z,5.03
2023-11-30T06:29:12.136Z,6.27
2023-11-30T06:34:15.265Z,6.60
2023-11-30T06:39:19.443Z,5.27
2023-11-30T06:44:23.976Z,4.07
2023-11-30T06:49:27.111Z,4.33
2023-11-30T06:54:30.334Z,4.70
2023-11-30T06:59:35.422Z,4.10
2023-11-30T07:04:38.696Z,4.33
2023-11-30T07:09:41.884Z,4.10
2023-11-30T07:14:51.030Z,4.17
2023-11-30T07:19:55.018Z,4.03
2023-11-30T07:24:58.664Z,3.87
2023-11-30T07:30:03.272Z,4.00
2023-11-30T07:35:07.733Z,4.00
2023-11-30T07:40:11.518Z,4.00
2023-11-30T07:45:16.182Z,3.83
2023-11-30T07:50:19.588Z,3.70
2023-11-30T07:55:22.967Z,3.97
2023-11-30T08:00:27.517Z,4.00
2023-11-30T08:05:30.766Z,4.00
2023-11-30T08:10:34.919Z,3.80
2023-11-30T08:15:39.587Z,4.13
2023-11-30T08:20:44.227Z,4.37
2023-11-30T08:25:47.411Z,4.47
2023-11-30T08:30:52.361Z,4.37
2023-11-30T08:35:55.630Z,7.57
2023-11-30T08:40:59.472Z,5.10
2023-11-30T08:46:04.618Z,4.70
2023-11-30T08:51:09.578Z,4.73
2023-11-30T08:56:13.540Z,4.60
2023-11-30T09:01:18.166Z,3.80
2023-11-30T09:06:21.640Z,3.97
2023-11-30T09:11:24.961Z,4.10
2023-11-30T09:16:29.458Z,3.97
2023-11-30T09:21:32.612Z,3.47
2023-11-30T09:26:35.804Z,3.57
2023-11-30T09:31:43.472Z,4.83
2023-11-30T09:36:46.766Z,3.87
2023-11-30T09:41:50.300Z,4.37
2023-11-30T09:46:54.919Z,3.73
2023-11-30T09:51:58.151Z,3.80
2023-11-30T09:57:01.459Z,4.03
2023-11-30T10:02:11.364Z,3.70
2023-11-30T10:07:14.689Z,3.30
2023-11-30T10:12:21.144Z,10.13
2023-11-30T10:17:29.487Z,5.33
2023-11-30T10:22:32.859Z,5.17
2023-11-30T10:27:37.727Z,4.37
2023-11-30T10:32:42.324Z,4.20
2023-11-30T10:37:48.034Z,3.73
2023-11-30T10:42:51.540Z,4.03
2023-11-30T10:47:57.136Z,4.30
2023-11-30T10:53:00.597Z,4.70
2023-11-30T10:58:06.646Z,4.50
2023-11-30T11:03:11.676Z,4.53
2023-11-30T11:08:15.131Z,4.70
2023-11-30T11:13:24.635Z,4.27
2023-11-30T11:18:33.686Z,4.50
2023-11-30T11:23:40.270Z,4.40
2023-11-30T11:28:43.455Z,4.73
2023-11-30T11:33:48.172Z,4.77
2023-11-30T11:38:52.193Z,5.00
2023-11-30T11:43:55.784Z,5.10
2023-11-30T11:49:00.285Z,4.80
2023-11-30T11:54:03.505Z,4.97
2023-11-30T11:59:06.701Z,5.50
2023-11-30T12:04:11.341Z,5.90
2023-11-30T12:09:14.605Z,8.20
2023-11-30T12:14:17.914Z,6.73
2023-11-30T12:19:22.468Z,6.00
2023-11-30T12:24:25.680Z,6.53
2023-11-30T12:29:28.944Z,5.50
2023-11-30T12:34:33.437Z,5.73
2023-11-30T12:39:36.860Z,5.57
2023-11-30T12:44:39.974Z,5.53
2023-11-30T12:49:45.287Z,5.57
2023-11-30T12:54:51.129Z,5.70
2023-11-30T12:59:54.492Z,5.67
2023-11-30T13:04:59.047Z,6.23
2023-11-30T13:10:03.010Z,6.53
2023-11-30T13:15:09.537Z,5.97
2023-11-30T13:20:15.576Z,6.17
2023-11-30T13:25:19.060Z,6.57
2023-11-30T13:30:22.293Z,7.77
2023-11-30T13:35:26.998Z,10.00
2023-11-30T13:40:31.874Z,9.33
2023-11-30T13:45:35.570Z,8.63
2023-11-30T13:50:49.462Z,7.70
2023-11-30T13:55:57.823Z,7.50
2023-11-30T14:01:01.975Z,6.40
2023-11-30T14:06:07.093Z,6.07
2023-11-30T14:11:13.311Z,6.70
2023-11-30T14:16:17.467Z,5.80
2023-11-30T14:21:22.035Z,5.97
2023-11-30T14:26:26.816Z,8.20
2023-11-30T14:31:30.349Z,7.87
2023-11-30T14:36:34.879Z,5.60
2023-11-30T14:41:38.494Z,42.57
2023-11-30T14:46:42.285Z,24.57
2023-11-30T14:51:48.171Z,11.63
2023-11-30T14:56:51.411Z,10.33
2023-11-30T15:01:55.556Z,8.00
2023-11-30T15:07:01.321Z,6.70
2023-11-30T15:12:06.052Z,6.40
2023-11-30T15:17:11.099Z,6.23
2023-11-30T15:22:15.605Z,5.00
2023-11-30T15:27:18.766Z,5.43
2023-11-30T15:32:21.900Z,6.70
2023-11-30T15:37:26.372Z,6.47
2023-11-30T15:42:29.475Z,6.83
2023-11-30T15:47:32.721Z,6.73
2023-11-30T15:52:37.351Z,6.40
2023-11-30T15:57:40.682Z,6.63
2023-11-30T16:02:47.011Z,6.00
2023-11-30T16:07:52.524Z,5.47
2023-11-30T16:12:55.999Z,4.63
2023-11-30T16:17:59.281Z,4.40
2023-11-30T16:23:04.186Z,4.30
2023-11-30T16:28:07.701Z,4.47
2023-11-30T16:33:10.876Z,5.03
2023-11-30T16:38:16.637Z,5.53
2023-11-30T16:43:19.852Z,5.63
2023-11-30T16:48:23.070Z,5.53
2023-11-30T16:53:29.519Z,5.80
2023-11-30T16:58:32.840Z,5.77
2023-11-30T17:03:36.042Z,5.53
2023-11-30T17:08:40.640Z,5.90
2023-11-30T17:13:43.779Z,6.47
2023-11-30T17:18:47.631Z,10.73
2023-11-30T17:23:52.202Z,9.07
2023-11-30T17:28:55.321Z,8.40
2023-11-30T17:33:58.598Z,7.27
2023-11-30T17:39:03.180Z,8.97
2023-11-30T17:44:06.818Z,8.27
2023-11-30T17:49:09.966Z,8.20
2023-11-30T17:54:14.453Z,8.83
2023-11-30T17:59:17.748Z,9.00
2023-11-30T18:04:20.938Z,9.93
2023-11-30T18:09:27.791Z,9.97
2023-11-30T18:14:33.356Z,9.47
2023-11-30T18:19:36.596Z,29.90
2023-11-30T18:24:41.116Z,16.20
2023-11-30T18:29:44.239Z,11.37
2023-11-30T18:34:47.365Z,11.33
2023-11-30T18:39:51.891Z,9.60
2023-11-30T18:44:55.273Z,9.40
2023-11-30T18:49:58.677Z,8.80
2023-11-30T18:55:03.691Z,8.40
2023-11-30T19:00:09.197Z,9.80
2023-11-30T19:05:12.912Z,10.00
2023-11-30T19:10:17.545Z,10.53
2023-11-30T19:15:21.220Z,9.87
2023-11-30T19:20:24.315Z,10.00
2023-11-30T19:25:29.015Z,9.60
2023-11-30T19:30:32.169Z,9.77
2023-11-30T19:35:36.487Z,8.80
2023-11-30T19:40:42.090Z,9.53
2023-11-30T19:45:45.359Z,9.33
2023-11-30T19:50:48.931Z,9.30
2023-11-30T19:55:53.456Z,10.37
2023-11-30T20:00:56.602Z,9.80
2023-11-30T20:06:01.789Z,10.07
2023-11-30T20:11:08.528Z,11.23
2023-11-30T20:16:12.386Z,13.93
2023-11-30T20:21:19.296Z,12.13
2023-11-30T20:26:25.918Z,12.20
2023-11-30T20:31:29.098Z,13.37
2023-11-30T20:36:32.422Z,11.67
2023-11-30T20:41:37.962Z,13.80
2023-11-30T20:46:41.108Z,14.13
2023-11-30T20:51:44.341Z,11.47
2023-11-30T20:56:49.887Z,13.70
2023-11-30T21:01:53.493Z,14.53
2023-11-30T21:06:56.728Z,16.23
2023-11-30T21:12:01.662Z,12.80
2023-11-30T21:17:05.173Z,11.57
2023-11-30T21:22:08.762Z,11.97
2023-11-30T21:27:13.865Z,12.63
2023-11-30T21:32:16.978Z,12.10
2023-11-30T21:37:20.273Z,11.80
2023-11-30T21:42:27.768Z,12.40
2023-11-30T21:47:31.383Z,10.57
2023-11-30T21:52:34.655Z,12.10
2023-11-30T21:57:39.166Z,11.77
2023-11-30T22:02:45.315Z,11.37
2023-11-30T22:07:48.927Z,12.63
2023-11-30T22:12:53.555Z,11.10
2023-11-30T22:17:57.741Z,11.73
2023-11-30T22:23:01.019Z,11.33
2023-11-30T22:28:05.834Z,11.30
2023-11-30T22:33:09.015Z,11.17
2023-11-30T22:38:12.309Z,10.50
2023-11-30T22:43:17.830Z,10.83
2023-11-30T22:48:21.436Z,10.53
2023-11-30T22:53:24.653Z,10.50
2023-11-30T22:58:29.272Z,12.03
2023-11-30T23:03:32.619Z,11.87
2023-11-30T23:08:35.934Z,11.17
2023-11-30T23:13:40.670Z,11.53
2023-11-30T23:18:43.957Z,10.80
2023-11-30T23:23:47.101Z,11.37
2023-11-30T23:28:51.827Z,11.20
2023-11-30T23:33:57.563Z,11.93
2023-11-30T23:39:05.250Z,11.90
2023-11-30T23:44:09.799Z,12.37
2023-11-30T23:49:13.077Z,11.13
2023-11-30T23:54:16.242Z,9.83
2023-11-30T23:59:20.723Z,9.93
